Time;durP1;ratioP1;P1;durP2;ratioP2;P2;SDS_P1;SDS_P2;PMS_P1;PMS_P2;Temp;Humidity;BMP_temperature;BMP_pressure;BME280_temperature;BME280_humidity;BME280_pressure;Samples;Min_cycle;Max_cycle;Signal;HPM_P1;HPM_P2
2022/07/17 00:01:20;;;;;;;4.87;3.37;;;14.40;99.90;;;;;;5036159;28;20862;-89
2022/07/17 00:03:47;;;;;;;5.43;3.00;;;14.40;99.90;;;;;;5036835;28;20209;-88
2022/07/17 00:06:15;;;;;;;5.10;3.10;;;14.30;99.90;;;;;;5034951;28;20213;-89
2022/07/17 00:08:43;;;;;;;3.57;2.40;;;14.30;99.90;;;;;;5036636;28;20253;-89
2022/07/17 00:11:10;;;;;;;3.63;2.38;;;14.30;99.90;;;;;;5036628;28;20199;-89
2022/07/17 00:13:37;;;;;;;3.77;2.40;;;14.30;99.90;;;;;;5036658;28;20281;-89
2022/07/17 00:16:04;;;;;;;4.93;2.73;;;14.30;99.90;;;;;;5022143;28;20208;-88
2022/07/17 00:18:31;;;;;;;4.35;2.75;;;14.30;99.90;;;;;;5016931;28;20225;-88
2022/07/17 00:20:58;;;;;;;7.55;2.72;;;14.30;99.90;;;;;;5026669;28;20209;-89
2022/07/17 00:23:24;;;;;;;3.83;2.53;;;14.30;99.90;;;;;;5036688;28;20202;-89
2022/07/17 00:25:53;;;;;;;3.67;2.47;;;14.30;99.90;;;;;;5016765;28;20267;-89
2022/07/17 00:28:20;;;;;;;3.60;2.50;;;14.20;99.90;;;;;;5015569;28;20592;-88
2022/07/17 00:30:46;;;;;;;4.53;2.30;;;14.20;99.90;;;;;;5014750;28;20201;-89
2022/07/17 00:33:13;;;;;;;2.97;2.23;;;14.20;99.90;;;;;;5019738;28;20217;-89
2022/07/17 00:35:40;;;;;;;2.93;2.17;;;14.20;99.90;;;;;;5036077;28;20277;-88
2022/07/17 00:38:07;;;;;;;2.33;2.10;;;14.20;99.90;;;;;;5035712;28;20223;-89
2022/07/17 00:40:34;;;;;;;3.55;2.35;;;14.10;99.90;;;;;;5036463;28;20214;-89
2022/07/17 00:43:03;;;;;;;3.47;2.00;;;14.10;99.90;;;;;;5035739;28;20545;-88
2022/07/17 00:45:30;;;;;;;2.37;2.10;;;14.10;99.90;;;;;;5035667;28;20206;-89
2022/07/17 00:47:58;;;;;;;2.63;1.70;;;14.10;99.90;;;;;;5035439;28;20209;-89
2022/07/17 00:50:27;;;;;;;2.70;1.83;;;14.10;99.90;;;;;;5036047;28;20195;-89
2022/07/17 00:52:55;;;;;;;2.73;1.50;;;14.10;99.90;;;;;;5035555;28;20199;-88
2022/07/17 00:55:24;;;;;;;3.03;1.87;;;14.10;99.90;;;;;;5023472;28;20510;-88
2022/07/17 00:57:54;;;;;;;2.97;1.80;;;14.00;99.90;;;;;;5015819;28;20564;-89
2022/07/17 01:00:23;;;;;;;2.63;1.93;;;14.00;99.90;;;;;;5015975;28;20235;-89
2022/07/17 01:02:52;;;;;;;4.60;2.00;;;14.00;99.90;;;;;;5023561;28;20206;-87
2022/07/17 01:05:20;;;;;;;3.93;2.07;;;14.00;99.90;;;;;;5028961;28;20200;-88
2022/07/17 01:07:47;;;;;;;2.40;1.90;;;14.00;99.90;;;;;;5035823;28;20613;-86
2022/07/17 01:10:16;;;;;;;3.30;1.80;;;14.00;99.90;;;;;;5035049;28;20225;-87
2022/07/17 01:12:43;;;;;;;1.80;1.57;;;13.90;99.90;;;;;;5034152;28;20257;-87
2022/07/17 01:15:11;;;;;;;3.40;1.77;;;13.90;99.90;;;;;;5035088;28;20286;-88
2022/07/17 01:17:40;;;;;;;3.17;2.07;;;13.90;99.90;;;;;;5034775;28;20313;-89
2022/07/17 01:20:10;;;;;;;2.77;1.80;;;13.90;99.90;;;;;;5034349;28;20208;-88
2022/07/17 01:22:42;;;;;;;3.63;1.70;;;13.90;99.90;;;;;;5035067;28;20614;-89
2022/07/17 01:25:10;;;;;;;3.63;2.03;;;13.80;99.90;;;;;;5034487;28;20282;-88
2022/07/17 01:27:37;;;;;;;3.13;2.17;;;13.80;99.90;;;;;;5034951;28;20621;-90
2022/07/17 01:30:06;;;;;;;3.63;2.43;;;13.80;99.90;;;;;;5034736;28;20602;-88
2022/07/17 01:32:33;;;;;;;3.63;2.27;;;13.70;99.90;;;;;;5025487;28;20203;-88
2022/07/17 01:35:00;;;;;;;3.97;3.07;;;13.70;99.90;;;;;;5015305;28;20466;-88
2022/07/17 01:37:27;;;;;;;5.80;2.30;;;13.60;99.90;;;;;;5015209;28;20203;-88
2022/07/17 01:39:56;;;;;;;2.20;1.90;;;13.60;99.90;;;;;;5015049;28;20211;-88
2022/07/17 01:42:25;;;;;;;4.43;2.27;;;13.50;99.90;;;;;;5014975;28;20242;-86
2022/07/17 01:44:52;;;;;;;3.70;2.20;;;13.40;99.90;;;;;;5015529;28;20199;-89
2022/07/17 01:47:19;;;;;;;2.97;2.00;;;13.40;99.90;;;;;;5014807;28;20210;-88
2022/07/17 01:49:47;;;;;;;4.47;2.30;;;13.40;99.90;;;;;;5023340;28;20784;-90
2022/07/17 01:52:15;;;;;;;3.50;1.80;;;13.30;99.90;;;;;;5034801;28;20296;-88
2022/07/17 01:54:43;;;;;;;5.07;1.90;;;13.30;99.90;;;;;;5033902;28;20217;-89
2022/07/17 01:57:12;;;;;;;3.63;1.87;;;13.30;99.90;;;;;;5034642;28;20210;-88
2022/07/17 01:59:40;;;;;;;1.87;1.50;;;13.30;99.90;;;;;;5034500;28;20222;-89
2022/07/17 02:02:08;;;;;;;3.10;2.10;;;13.30;99.90;;;;;;5033653;28;20248;-88
2022/07/17 02:04:36;;;;;;;2.23;1.60;;;13.30;99.90;;;;;;5033267;28;20229;-89
2022/07/17 02:07:04;;;;;;;1.93;1.70;;;13.20;99.90;;;;;;5032492;28;20198;-87
2022/07/17 02:09:31;;;;;;;3.70;1.97;;;13.20;99.90;;;;;;5033201;28;20195;-88
2022/07/17 02:11:58;;;;;;;2.27;1.80;;;13.20;99.90;;;;;;5033298;28;20226;-89
2022/07/17 02:14:27;;;;;;;1.73;1.40;;;13.20;99.90;;;;;;5032786;28;20205;-88
2022/07/17 02:16:55;;;;;;;3.53;1.90;;;13.20;99.90;;;;;;5033174;28;20211;-83
2022/07/17 02:19:22;;;;;;;4.07;1.90;;;13.20;99.90;;;;;;5032551;28;20226;-86
2022/07/17 02:21:49;;;;;;;1.80;1.70;;;13.20;99.90;;;;;;5012070;28;20213;-86
2022/07/17 02:24:16;;;;;;;1.83;1.60;;;13.20;99.90;;;;;;5013557;28;20195;-85
2022/07/17 02:26:43;;;;;;;3.90;1.60;;;13.20;99.90;;;;;;5025294;28;20208;-87
2022/07/17 02:29:10;;;;;;;2.20;1.70;;;13.10;99.90;;;;;;5035354;28;20195;-85
2022/07/17 02:31:38;;;;;;;4.13;2.30;;;13.10;99.90;;;;;;5037336;28;20209;-87
2022/07/17 02:34:05;;;;;;;2.30;1.90;;;13.10;99.90;;;;;;5038123;28;20194;-88
2022/07/17 02:36:32;;;;;;;2.83;1.70;;;13.10;99.90;;;;;;5037510;28;20206;-85
2022/07/17 02:38:59;;;;;;;2.20;1.77;;;13.10;99.90;;;;;;5037585;28;20233;-86
2022/07/17 02:41:26;;;;;;;2.90;1.60;;;13.10;99.90;;;;;;5037791;28;20199;-85
2022/07/17 02:43:52;;;;;;;3.33;2.00;;;13.10;99.90;;;;;;5037271;28;20302;-85
2022/07/17 02:46:19;;;;;;;3.03;1.80;;;13.10;99.90;;;;;;5037314;28;20223;-87
2022/07/17 02:48:47;;;;;;;1.93;1.60;;;13.20;99.90;;;;;;5037398;28;20209;-88
2022/07/17 02:51:14;;;;;;;2.57;1.70;;;13.20;99.90;;;;;;5036977;28;20201;-87
2022/07/17 02:53:41;;;;;;;3.10;2.00;;;13.20;99.90;;;;;;5037469;28;20205;-86
2022/07/17 02:56:08;;;;;;;2.77;2.07;;;13.20;99.90;;;;;;5037167;28;20205;-87
2022/07/17 02:58:35;;;;;;;3.57;2.00;;;13.10;99.90;;;;;;5034680;28;20232;-88
2022/07/17 03:01:02;;;;;;;2.20;2.00;;;13.10;99.90;;;;;;5035792;28;20568;-88
2022/07/17 03:03:30;;;;;;;2.77;1.90;;;13.10;99.90;;;;;;5037405;28;20282;-89
2022/07/17 03:05:58;;;;;;;2.07;1.70;;;13.10;99.90;;;;;;5037492;28;20198;-89
2022/07/17 03:08:25;;;;;;;3.00;1.80;;;13.10;99.90;;;;;;5037621;28;20198;-89
2022/07/17 03:10:52;;;;;;;3.00;2.00;;;13.10;99.90;;;;;;5029320;28;20211;-89
2022/07/17 03:13:19;;;;;;;2.70;2.17;;;13.10;99.90;;;;;;5017162;28;20214;-86
2022/07/17 03:15:45;;;;;;;2.10;1.90;;;13.10;99.90;;;;;;5017442;28;20207;-89
2022/07/17 03:18:12;;;;;;;2.20;2.00;;;13.00;99.90;;;;;;5017321;28;20203;-89
2022/07/17 03:20:39;;;;;;;3.33;2.57;;;13.10;99.90;;;;;;5035072;28;20203;-89
2022/07/17 03:23:08;;;;;;;3.30;2.30;;;13.10;99.90;;;;;;5036952;28;20282;-90
2022/07/17 03:25:35;;;;;;;3.30;2.00;;;13.00;99.90;;;;;;5032940;28;20211;-89
2022/07/17 03:28:02;;;;;;;2.07;1.80;;;13.00;99.90;;;;;;5017375;28;20645;-89
2022/07/17 03:30:29;;;;;;;3.03;1.90;;;13.00;99.90;;;;;;5027681;28;20256;-88
2022/07/17 03:32:56;;;;;;;2.10;1.70;;;13.00;99.90;;;;;;5037019;28;20205;-89
2022/07/17 03:35:23;;;;;;;2.83;2.10;;;13.00;99.90;;;;;;5036584;28;20281;-89
2022/07/17 03:37:50;;;;;;;2.13;1.90;;;13.00;99.90;;;;;;5035175;28;20217;-88
2022/07/17 03:40:18;;;;;;;2.27;1.70;;;12.90;99.90;;;;;;5035566;28;20783;-89
2022/07/17 03:42:45;;;;;;;1.90;1.63;;;12.90;99.90;;;;;;5036098;28;20302;-89
2022/07/17 03:45:12;;;;;;;2.63;1.87;;;12.90;99.90;;;;;;5034737;28;20245;-88
2022/07/17 03:47:39;;;;;;;2.17;1.67;;;12.90;99.90;;;;;;5035749;28;20216;-88
2022/07/17 03:50:07;;;;;;;2.27;2.07;;;12.80;99.90;;;;;;5035951;28;20197;-89
2022/07/17 03:52:34;;;;;;;1.83;1.50;;;12.80;99.90;;;;;;5036636;28;20233;-86
2022/07/17 03:55:01;;;;;;;2.47;1.77;;;12.90;99.90;;;;;;5036068;28;20248;-85
2022/07/17 03:57:29;;;;;;;3.50;1.97;;;12.90;99.90;;;;;;5036248;28;20206;-87
2022/07/17 03:59:56;;;;;;;3.13;1.90;;;12.90;99.90;;;;;;5034865;28;20490;-89
2022/07/17 04:02:23;;;;;;;3.47;1.90;;;12.80;99.90;;;;;;5032375;28;20252;-89
2022/07/17 04:04:51;;;;;;;2.10;1.87;;;12.80;99.90;;;;;;5034418;28;20226;-84
2022/07/17 04:07:30;;;;;;;2.57;1.70;;;12.90;99.90;;;;;;5033305;28;20262;-89
2022/07/17 04:09:58;;;;;;;2.43;1.87;;;12.90;99.90;;;;;;5022045;28;20738;-88
2022/07/17 04:12:26;;;;;;;5.47;2.33;;;12.80;99.90;;;;;;5029625;28;20229;-88
2022/07/17 04:14:55;;;;;;;2.03;1.83;;;12.80;99.90;;;;;;5033318;28;20211;-89
2022/07/17 04:17:22;;;;;;;2.30;2.10;;;12.90;99.90;;;;;;5032263;28;20198;-88
2022/07/17 04:19:49;;;;;;;2.70;1.90;;;12.80;99.90;;;;;;5022541;28;20241;-89
2022/07/17 04:22:16;;;;;;;2.67;1.93;;;12.90;99.90;;;;;;5016445;28;20191;-86
2022/07/17 04:24:44;;;;;;;4.57;1.90;;;12.90;99.90;;;;;;5035369;28;20477;-83
2022/07/17 04:27:11;;;;;;;2.93;2.07;;;12.90;99.90;;;;;;5035623;28;20502;-86
2022/07/17 04:29:39;;;;;;;2.93;2.07;;;13.00;99.90;;;;;;5035878;28;20484;-86
2022/07/17 04:32:08;;;;;;;1.97;1.60;;;13.10;99.90;;;;;;5035180;28;20626;-85
2022/07/17 04:34:35;;;;;;;2.33;2.10;;;13.20;99.90;;;;;;5035654;28;20223;-86
2022/07/17 04:37:03;;;;;;;4.43;2.00;;;13.20;99.90;;;;;;5029259;28;20214;-87
2022/07/17 04:39:30;;;;;;;2.77;1.90;;;13.30;99.90;;;;;;5021121;28;20628;-85
2022/07/17 04:41:58;;;;;;;4.83;2.10;;;13.40;99.90;;;;;;5015603;28;20574;-87
2022/07/17 04:44:24;;;;;;;3.13;2.13;;;13.50;99.90;;;;;;5015014;28;20203;-88
2022/07/17 04:46:51;;;;;;;4.33;2.17;;;13.60;99.90;;;;;;5015064;28;20199;-88
2022/07/17 04:49:20;;;;;;;2.20;1.73;;;13.60;99.90;;;;;;5029696;28;20203;-88
2022/07/17 04:51:47;;;;;;;3.13;2.37;;;13.70;99.90;;;;;;5033977;28;20659;-85
2022/07/17 04:54:13;;;;;;;3.40;1.63;;;13.80;99.90;;;;;;5035447;28;20281;-90
2022/07/17 04:56:40;;;;;;;3.10;1.90;;;13.90;99.90;;;;;;5035075;28;20602;-90
2022/07/17 04:59:07;;;;;;;3.57;1.77;;;13.90;99.90;;;;;;5035513;28;20225;-88
2022/07/17 05:01:34;;;;;;;2.80;1.77;;;14.00;99.90;;;;;;5023323;28;20551;-89
2022/07/17 05:04:02;;;;;;;1.67;1.57;;;14.00;99.90;;;;;;5015294;28;20210;-89
2022/07/17 05:06:31;;;;;;;2.50;1.37;;;14.00;99.90;;;;;;5034803;28;20539;-90
2022/07/17 05:08:58;;;;;;;4.47;2.20;;;14.10;99.90;;;;;;5035219;28;20818;-85
2022/07/17 05:11:24;;;;;;;3.83;1.90;;;14.10;99.90;;;;;;5033872;28;20214;-90
2022/07/17 05:13:51;;;;;;;3.53;1.83;;;14.10;99.90;;;;;;5035046;28;20199;-89
2022/07/17 05:16:18;;;;;;;2.00;1.60;;;14.20;99.90;;;;;;5034864;28;20317;-86
2022/07/17 05:18:45;;;;;;;4.50;1.93;;;14.10;99.90;;;;;;5034335;28;20225;-89
2022/07/17 05:21:14;;;;;;;3.77;1.63;;;14.20;99.90;;;;;;5034911;28;20412;-86
2022/07/17 05:23:42;;;;;;;5.43;2.40;;;14.20;99.90;;;;;;5033823;28;20198;-89
2022/07/17 05:26:09;;;;;;;4.67;1.80;;;14.20;99.90;;;;;;5033159;28;20222;-85
2022/07/17 05:28:36;;;;;;;3.83;2.60;;;14.30;99.90;;;;;;5034240;28;20203;-90
2022/07/17 05:31:03;;;;;;;3.20;1.90;;;14.30;99.90;;;;;;5034495;28;20616;-89
2022/07/17 05:33:30;;;;;;;4.03;2.13;;;14.40;99.90;;;;;;5034577;28;20202;-89
2022/07/17 05:35:57;;;;;;;3.43;1.83;;;14.50;99.90;;;;;;5034554;28;20506;-90
2022/07/17 05:38:23;;;;;;;4.30;2.37;;;14.70;99.90;;;;;;5034607;28;20252;-87
2022/07/17 05:40:52;;;;;;;2.97;2.20;;;14.90;99.90;;;;;;5032342;28;20219;-89
2022/07/17 05:43:19;;;;;;;5.67;2.10;;;15.00;99.90;;;;;;5034345;28;20238;-86
2022/07/17 05:45:46;;;;;;;9.07;2.80;;;15.20;99.90;;;;;;5033938;28;20199;-87
2022/07/17 05:48:13;;;;;;;5.87;2.37;;;15.40;99.90;;;;;;5034458;28;20289;-87
2022/07/17 05:50:40;;;;;;;5.00;2.30;;;15.60;99.90;;;;;;5033855;28;20194;-83
2022/07/17 05:53:06;;;;;;;4.63;2.20;;;15.80;99.90;;;;;;5033891;28;20211;-84
2022/07/17 05:55:33;;;;;;;4.67;1.90;;;16.10;99.90;;;;;;5014477;28;20211;-85
2022/07/17 05:58:02;;;;;;;5.00;2.10;;;16.30;99.90;;;;;;5014452;28;20198;-81
2022/07/17 06:00:29;;;;;;;4.03;2.15;;;16.60;99.90;;;;;;5014524;28;20318;-89
2022/07/17 06:02:55;;;;;;;5.18;2.10;;;16.80;99.90;;;;;;5035013;28;20198;-89
2022/07/17 06:05:22;;;;;;;3.33;1.70;;;17.10;99.90;;;;;;5034405;28;20218;-89
2022/07/17 06:07:49;;;;;;;4.25;1.73;;;17.40;99.90;;;;;;5028614;28;20595;-89
2022/07/17 06:10:16;;;;;;;4.57;1.58;;;17.60;99.90;;;;;;5014637;28;20496;-89
2022/07/17 06:12:43;;;;;;;5.95;1.73;;;17.80;99.90;;;;;;5015944;28;20257;-90
2022/07/17 06:15:12;;;;;;;4.35;1.70;;;18.20;99.90;;;;;;5015579;28;20188;-90
2022/07/17 06:17:39;;;;;;;4.53;1.40;;;18.50;57.40;;;;;;5031189;28;20208;-90
2022/07/17 06:20:07;;;;;;;3.40;1.50;;;18.80;72.50;;;;;;5016118;28;20219;-89
2022/07/17 06:22:33;;;;;;;8.75;1.90;;;19.10;13.30;;;;;;5033188;28;20629;-85
2022/07/17 06:25:00;;;;;;;5.10;1.60;;;19.20;1.00;;;;;;5034578;28;20318;-84
2022/07/17 06:27:27;;;;;;;5.57;1.65;;;19.40;1.00;;;;;;5042068;28;20213;-88
2022/07/17 06:29:54;;;;;;;5.47;1.77;;;19.70;1.00;;;;;;5048432;28;20202;-89
2022/07/17 06:32:27;;;;;;;5.97;1.50;;;19.90;1.00;;;;;;5050511;28;20277;-87
2022/07/17 06:34:54;;;;;;;4.47;1.90;;;20.10;1.00;;;;;;5049012;28;20230;-87
2022/07/17 06:37:21;;;;;;;2.58;1.20;;;20.20;1.00;;;;;;5047279;28;20201;-87
2022/07/17 06:39:47;;;;;;;3.10;1.30;;;20.40;1.00;;;;;;5038396;28;20227;-85
2022/07/17 06:42:14;;;;;;;4.57;1.30;;;20.60;1.00;;;;;;5028679;28;20257;-87
2022/07/17 06:44:41;;;;;;;5.05;1.42;;;20.80;1.00;;;;;;5034203;28;20214;-87
2022/07/17 06:47:08;;;;;;;5.15;1.38;;;21.20;1.00;;;;;;5033003;28;20362;-85
2022/07/17 06:49:37;;;;;;;3.88;1.40;;;21.20;1.00;;;;;;5027421;28;20228;-87
2022/07/17 06:52:05;;;;;;;3.28;1.30;;;21.30;1.00;;;;;;5032300;28;20225;-85
2022/07/17 06:54:31;;;;;;;3.90;1.45;;;21.60;1.00;;;;;;5024562;28;20217;-88
2022/07/17 06:57:00;;;;;;;5.15;1.38;;;21.90;1.00;;;;;;5013187;28;20610;-88
2022/07/17 06:59:27;;;;;;;3.08;1.25;;;22.20;99.90;;;;;;5013993;28;20227;-88
2022/07/17 07:01:54;;;;;;;3.30;1.20;;;22.40;99.90;;;;;;5029367;28;20265;-87
2022/07/17 07:04:23;;;;;;;3.67;1.20;;;22.60;1.00;;;;;;5031018;28;20203;-89
2022/07/17 07:06:51;;;;;;;5.25;1.52;;;22.90;99.90;;;;;;5033088;28;20587;-89
2022/07/17 07:09:18;;;;;;;5.10;1.42;;;22.90;1.00;;;;;;5031369;28;20213;-89
2022/07/17 07:11:45;;;;;;;4.40;1.60;;;23.30;99.90;;;;;;5033940;28;20212;-90
2022/07/17 07:14:12;;;;;;;2.92;1.20;;;23.60;1.00;;;;;;5017849;28;20522;-89
2022/07/17 07:16:39;;;;;;;3.25;1.65;;;23.70;1.00;;;;;;5015714;28;20214;-88
2022/07/17 07:19:06;;;;;;;3.08;1.30;;;23.90;99.90;;;;;;5016405;28;20204;-89
2022/07/17 07:21:33;;;;;;;3.80;1.70;;;24.10;99.90;;;;;;5016842;28;20593;-89
2022/07/17 07:24:03;;;;;;;3.70;1.75;;;24.30;1.00;;;;;;5017517;28;20546;-86
2022/07/17 07:26:30;;;;;;;6.85;1.70;;;24.40;99.90;;;;;;5017081;28;20206;-88
2022/07/17 07:28:57;;;;;;;3.30;1.60;;;24.50;9.70;;;;;;5034627;28;20222;-86
2022/07/17 07:31:23;;;;;;;5.32;1.60;;;24.60;1.00;;;;;;5036024;28;20222;-85
2022/07/17 07:33:50;;;;;;;3.33;1.40;;;24.70;1.00;;;;;;5036705;28;20203;-90
2022/07/17 07:36:17;;;;;;;4.28;1.42;;;25.10;99.90;;;;;;5036816;28;20285;-87
2022/07/17 07:38:45;;;;;;;3.33;1.40;;;25.30;40.90;;;;;;5036493;28;20281;-90
2022/07/17 07:41:13;;;;;;;4.28;1.80;;;25.30;1.00;;;;;;5036337;28;20237;-89
2022/07/17 07:43:40;;;;;;;5.45;1.58;;;25.40;1.00;;;;;;5035538;28;20226;-85
2022/07/17 07:46:07;;;;;;;3.35;1.70;;;25.60;1.00;;;;;;5036678;28;20207;-88
2022/07/17 07:48:34;;;;;;;2.97;1.50;;;25.70;1.00;;;;;;5036508;28;20605;-89
2022/07/17 07:51:01;;;;;;;3.67;1.88;;;25.90;1.00;;;;;;5036489;28;20599;-86
2022/07/17 07:53:28;;;;;;;5.07;1.58;;;26.00;1.00;;;;;;5036136;28;20201;-89
2022/07/17 07:55:55;;;;;;;2.55;1.58;;;26.00;1.00;;;;;;5036691;28;20598;-85
2022/07/17 07:58:23;;;;;;;3.88;1.30;;;26.20;1.00;;;;;;5036047;28;20595;-85
2022/07/17 08:00:50;;;;;;;3.60;1.10;;;26.30;1.00;;;;;;5034993;28;20337;-84
2022/07/17 08:03:17;;;;;;;4.30;1.48;;;26.50;1.00;;;;;;5035720;28;20190;-86
2022/07/17 08:05:44;;;;;;;2.78;1.27;;;26.50;1.00;;;;;;5035199;28;21056;-85
2022/07/17 08:08:11;;;;;;;2.03;1.20;;;26.90;1.00;;;;;;5035624;28;20214;-86
2022/07/17 08:10:38;;;;;;;2.83;1.20;;;27.00;99.90;;;;;;5035347;28;20779;-87
2022/07/17 08:13:06;;;;;;;2.30;1.30;;;27.20;99.90;;;;;;5036035;28;20210;-89
2022/07/17 08:15:34;;;;;;;5.35;1.55;;;27.30;99.90;;;;;;5034841;28;20214;-88
2022/07/17 08:18:01;;;;;;;4.10;1.20;;;27.40;99.90;;;;;;5035837;28;20583;-86
2022/07/17 08:20:30;;;;;;;3.50;1.60;;;27.60;99.90;;;;;;5034750;28;20313;-87
2022/07/17 08:22:57;;;;;;;4.45;1.60;;;27.90;99.90;;;;;;5035790;28;20369;-87
2022/07/17 08:25:25;;;;;;;3.08;1.58;;;28.20;99.90;;;;;;5034165;28;20221;-86
2022/07/17 08:27:52;;;;;;;4.88;1.50;;;28.00;99.90;;;;;;5034585;28;20209;-88
2022/07/17 08:30:19;;;;;;;3.05;1.13;;;27.80;99.90;;;;;;5032931;28;20206;-87
2022/07/17 08:32:47;;;;;;;3.22;1.70;;;28.10;99.90;;;;;;5034408;28;20305;-89
2022/07/17 08:35:14;;;;;;;2.85;1.38;;;28.20;99.90;;;;;;5035329;28;20203;-87
2022/07/17 08:37:49;;;;;;;1.77;1.10;;;28.30;99.90;;;;;;5035619;28;20229;-88
2022/07/17 08:40:18;;;;;;;2.28;1.52;;;28.30;99.90;;;;;;5035424;28;20252;-89
2022/07/17 08:42:45;;;;;;;2.35;1.10;;;28.20;99.90;;;;;;5033937;28;20739;-87
2022/07/17 08:45:12;;;;;;;3.50;1.40;;;28.30;99.90;;;;;;5033361;28;20286;-87
2022/07/17 08:47:40;;;;;;;2.30;1.42;;;28.10;99.90;;;;;;5034048;28;20205;-87
2022/07/17 08:50:10;;;;;;;3.17;1.52;;;28.30;99.90;;;;;;5035731;28;20250;-88
2022/07/17 08:52:39;;;;;;;3.25;1.30;;;28.30;99.90;;;;;;5035131;28;20595;-86
2022/07/17 08:55:09;;;;;;;3.78;1.48;;;28.50;99.90;;;;;;5034866;28;20203;-88
2022/07/17 08:57:38;;;;;;;1.80;1.10;;;28.50;99.90;;;;;;5034776;28;20603;-88
2022/07/17 09:00:06;;;;;;;2.92;1.50;;;28.70;99.90;;;;;;5034497;28;20321;-89
2022/07/17 09:02:35;;;;;;;3.63;1.30;;;28.80;99.90;;;;;;5035383;28;20207;-89
2022/07/17 09:05:02;;;;;;;3.63;1.45;;;28.80;99.90;;;;;;5034967;28;20289;-90
2022/07/17 09:07:31;;;;;;;3.15;1.23;;;29.00;99.90;;;;;;5032128;28;20248;-90
2022/07/17 09:09:58;;;;;;;1.33;1.00;;;29.10;99.90;;;;;;5033117;28;20226;-90
2022/07/17 09:12:27;;;;;;;2.15;1.38;;;29.20;99.90;;;;;;5034086;28;20505;-90
2022/07/17 09:14:54;;;;;;;2.88;1.38;;;29.50;99.90;;;;;;5034463;28;20207;-89
2022/07/17 09:17:24;;;;;;;3.67;1.38;;;29.40;99.90;;;;;;5035058;28;20249;-88
2022/07/17 09:19:52;;;;;;;3.83;1.38;;;29.50;99.90;;;;;;5035145;28;20634;-89
2022/07/17 09:22:23;;;;;;;1.73;0.90;;;29.40;99.90;;;;;;5034492;28;20195;-89
2022/07/17 09:24:53;;;;;;;2.55;1.15;;;29.70;99.90;;;;;;5034831;28;20222;-89
2022/07/17 09:27:31;;;;;;;2.47;1.20;;;29.90;99.90;;;;;;5035459;28;20205;-88
2022/07/17 09:30:01;;;;;;;1.70;1.17;;;30.10;99.90;;;;;;5035136;28;20261;-89
2022/07/17 09:32:29;;;;;;;3.65;1.63;;;30.20;99.90;;;;;;5034997;28;20202;-89
2022/07/17 09:34:57;;;;;;;2.95;1.60;;;30.30;99.90;;;;;;5035880;28;20258;-88
2022/07/17 09:37:25;;;;;;;3.58;1.20;;;30.30;99.90;;;;;;5035592;28;20238;-90
2022/07/17 09:39:54;;;;;;;3.13;1.20;;;30.30;99.90;;;;;;5034931;28;20549;-89
2022/07/17 09:42:26;;;;;;;2.38;1.52;;;30.40;99.90;;;;;;5035038;28;20230;-90
2022/07/17 09:45:02;;;;;;;2.60;1.35;;;29.80;99.90;;;;;;5036714;28;20209;-88
2022/07/17 09:47:31;;;;;;;2.72;1.55;;;29.70;99.90;;;;;;5035565;28;20198;-90
2022/07/17 09:50:00;;;;;;;3.95;1.60;;;29.90;99.90;;;;;;5036175;28;20203;-88
2022/07/17 09:52:29;;;;;;;2.42;1.30;;;30.00;99.90;;;;;;5035609;28;20541;-89
2022/07/17 09:54:59;;;;;;;3.90;1.40;;;29.60;99.90;;;;;;5044114;23;20203;-88
2022/07/17 09:57:28;;;;;;;2.53;1.98;;;29.80;99.90;;;;;;5054711;28;20256;-89
2022/07/17 09:59:56;;;;;;;2.53;1.38;;;29.60;99.90;;;;;;5056435;28;20658;-88
2022/07/17 10:02:24;;;;;;;3.40;1.83;;;29.70;99.90;;;;;;5056264;28;20221;-88
2022/07/17 10:04:52;;;;;;;3.55;1.17;;;29.50;99.90;;;;;;5058511;28;20281;-87
2022/07/17 10:07:19;;;;;;;3.15;1.27;;;29.60;99.90;;;;;;5067181;28;20274;-89
2022/07/17 10:09:47;;;;;;;3.45;1.40;;;29.60;99.90;;;;;;5065407;28;20212;-88
2022/07/17 10:12:17;;;;;;;1.90;1.05;;;29.50;99.90;;;;;;5064675;28;20229;-89
2022/07/17 10:14:47;;;;;;;2.38;1.30;;;29.80;99.90;;;;;;5047214;28;20238;-89
2022/07/17 10:17:15;;;;;;;2.15;1.50;;;29.80;99.90;;;;;;5047154;28;20202;-90
2022/07/17 10:19:48;;;;;;;2.92;1.25;;;29.30;99.90;;;;;;5049807;28;20209;-89
2022/07/17 10:22:15;;;;;;;2.00;1.45;;;29.30;99.90;;;;;;5061091;28;20225;-87
2022/07/17 10:24:55;;;;;;;3.33;1.33;;;29.00;99.90;;;;;;5062297;28;20206;-88
2022/07/17 10:27:25;;;;;;;3.13;1.63;;;28.80;99.90;;;;;;5068551;28;20221;-88
2022/07/17 10:30:01;;;;;;;2.72;1.50;;;29.00;99.90;;;;;;5064874;28;20598;-90
2022/07/17 10:32:29;;;;;;;2.13;1.70;;;29.20;99.90;;;;;;5064608;28;20209;-88
2022/07/17 10:35:00;;;;;;;2.00;1.60;;;29.10;99.90;;;;;;5063866;28;20202;-90
2022/07/17 10:37:31;;;;;;;2.67;1.70;;;29.30;99.90;;;;;;5065056;28;20225;-88
2022/07/17 10:40:02;;;;;;;3.47;1.75;;;29.30;99.90;;;;;;5054599;28;20206;-91
2022/07/17 10:42:56;;;;;;;1.90;1.40;;;29.50;99.90;;;;;;5053872;28;20226;-90
2022/07/17 10:45:24;;;;;;;2.33;1.58;;;29.60;99.90;;;;;;5037258;28;20218;-89
2022/07/17 10:47:55;;;;;;;2.60;1.30;;;29.90;99.90;;;;;;5033961;28;20203;-90
2022/07/17 10:50:25;;;;;;;4.43;1.90;;;30.20;99.90;;;;;;5036070;28;20225;-90
2022/07/17 10:53:10;;;;;;;3.47;1.55;;;30.00;99.90;;;;;;5040310;28;20301;-90
2022/07/17 10:55:39;;;;;;;3.15;1.85;;;30.30;99.90;;;;;;5057116;28;20260;-90
2022/07/17 10:58:18;;;;;;;2.50;1.83;;;30.50;99.90;;;;;;5056819;28;20202;-90
2022/07/17 11:00:55;;;;;;;1.98;1.80;;;30.30;99.90;;;;;;5038164;28;20564;-91
2022/07/17 11:03:22;;;;;;;2.83;2.10;;;30.30;99.90;;;;;;5038111;28;20194;-89
2022/07/17 11:05:49;;;;;;;4.15;2.10;;;30.00;99.90;;;;;;5050738;28;20553;-89
2022/07/17 11:08:17;;;;;;;2.45;1.92;;;29.80;99.90;;;;;;5057582;28;20252;-89
2022/07/17 11:10:44;;;;;;;3.97;1.80;;;30.00;99.90;;;;;;5057597;28;20201;-91
2022/07/17 11:13:13;;;;;;;2.00;1.45;;;30.20;99.90;;;;;;5056854;28;20210;-90
2022/07/17 11:15:46;;;;;;;4.55;1.70;;;30.20;99.90;;;;;;5057286;28;20255;-91
2022/07/17 11:18:19;;;;;;;2.80;1.88;;;30.00;99.90;;;;;;5057305;28;20228;-87
2022/07/17 11:21:00;;;;;;;2.45;1.40;;;29.80;99.90;;;;;;5037218;28;20217;-95
2022/07/17 11:23:30;;;;;;;6.53;1.40;;;29.30;99.90;;;;;;5036633;28;20206;-86
2022/07/17 11:26:01;;;;;;;3.58;1.70;;;29.20;99.90;;;;;;5037589;28;20416;-91
2022/07/17 11:28:37;;;;;;;3.03;1.90;;;29.10;99.90;;;;;;5035831;28;20201;-89
2022/07/17 11:31:17;;;;;;;5.28;2.65;;;29.20;99.90;;;;;;5037854;28;20218;-92
2022/07/17 11:33:53;;;;;;;3.72;2.17;;;29.30;99.90;;;;;;5037584;28;20501;-92
2022/07/17 11:36:29;;;;;;;6.22;2.67;;;29.40;99.90;;;;;;5036658;28;20256;-91
2022/07/17 11:38:57;;;;;;;5.30;2.42;;;29.50;99.90;;;;;;5037416;28;20209;-90
2022/07/17 11:41:33;;;;;;;4.32;2.10;;;29.60;99.90;;;;;;5036741;28;20218;-91
2022/07/17 11:44:01;;;;;;;4.32;2.40;;;29.70;99.90;;;;;;5036950;28;20254;-93
2022/07/17 11:46:30;;;;;;;3.47;1.88;;;29.90;99.90;;;;;;5021626;28;20670;-89
2022/07/17 11:48:57;;;;;;;4.53;2.20;;;30.00;99.90;;;;;;5021493;28;20294;-87
2022/07/17 11:51:38;;;;;;;2.60;1.88;;;30.00;99.90;;;;;;5036359;28;20615;-90
2022/07/17 11:54:06;;;;;;;3.05;1.95;;;30.20;99.90;;;;;;5036291;28;20194;-88
2022/07/17 11:56:34;;;;;;;3.65;1.50;;;29.80;99.90;;;;;;5035963;28;20248;-90
2022/07/17 11:59:02;;;;;;;3.78;1.92;;;29.70;99.90;;;;;;5036936;28;20205;-88
2022/07/17 12:01:38;;;;;;;5.28;1.50;;;29.60;99.90;;;;;;5036055;28;20474;-94
2022/07/17 12:04:08;;;;;;;3.35;1.83;;;29.50;99.90;;;;;;5024872;28;20273;-89
2022/07/17 12:06:35;;;;;;;3.40;2.00;;;29.50;99.90;;;;;;5016556;28;20294;-89
2022/07/17 12:09:02;;;;;;;4.63;2.03;;;29.40;99.90;;;;;;5016583;28;20302;-87
2022/07/17 12:11:29;;;;;;;5.43;2.17;;;29.30;99.90;;;;;;5035702;28;20245;-90
2022/07/17 12:14:05;;;;;;;3.88;2.40;;;29.30;99.90;;;;;;5036742;28;20203;-92
2022/07/17 12:16:37;;;;;;;2.97;1.77;;;29.30;99.90;;;;;;5036855;28;20216;-89
2022/07/17 12:19:09;;;;;;;7.18;1.95;;;29.40;99.90;;;;;;5037097;28;20202;-88
2022/07/17 12:21:53;;;;;;;3.35;1.58;;;29.30;99.90;;;;;;5035990;28;20228;-87
2022/07/17 12:24:23;;;;;;;2.95;1.50;;;29.20;99.90;;;;;;5036638;28;20506;-88
2022/07/17 12:26:51;;;;;;;3.45;1.90;;;29.10;99.90;;;;;;5036694;28;20207;-90
2022/07/17 12:29:19;;;;;;;6.93;1.70;;;28.90;99.90;;;;;;5036387;28;20217;-86
2022/07/17 12:31:47;;;;;;;3.38;1.80;;;28.80;99.90;;;;;;5035962;28;20228;-89
2022/07/17 12:34:14;;;;;;;5.03;1.90;;;28.80;99.90;;;;;;5036542;28;20233;-92
2022/07/17 12:36:41;;;;;;;2.78;1.80;;;28.90;99.90;;;;;;5036926;28;20207;-90
2022/07/17 12:39:08;;;;;;;3.22;1.85;;;28.90;99.90;;;;;;5036977;28;20289;-88
2022/07/17 12:41:35;;;;;;;3.97;1.95;;;28.60;99.90;;;;;;5036839;28;20222;-89
2022/07/17 12:44:02;;;;;;;2.50;1.52;;;28.70;99.90;;;;;;5036873;28;20225;-90
2022/07/17 12:46:29;;;;;;;4.57;1.70;;;28.80;99.90;;;;;;5037015;28;20191;-90
2022/07/17 12:48:57;;;;;;;3.03;1.38;;;28.90;99.90;;;;;;5044751;28;20199;-91
2022/07/17 12:51:24;;;;;;;2.60;1.50;;;28.90;99.90;;;;;;5048623;28;20282;-88
2022/07/17 12:53:51;;;;;;;3.22;1.60;;;29.00;99.90;;;;;;5022736;28;20219;-91